Time;durP1;ratioP1;P1;durP2;ratioP2;P2;SDS_P1;SDS_P2;PMS_P1;PMS_P2;Temp;Humidity;BMP_temperature;BMP_pressure;BME280_temperature;BME280_humidity;BME280_pressure;Samples;Min_cycle;Max_cycle;Signal;HPM_P1;HPM_P2
2023/01/08 00:01:27;;;;;;;0.00;0.00;;;;;;;9.23;73.86;97841.44;7344477;19;20010;-58
2023/01/08 00:03:53;;;;;;;0.10;0.10;;;;;;;9.25;73.61;97855.19;7346121;19;20014;-58
2023/01/08 00:06:20;;;;;;;0.10;0.10;;;;;;;9.23;74.05;97844.06;7348834;19;20729;-57
2023/01/08 00:08:48;;;;;;;0.10;0.10;;;;;;;9.23;74.04;97851.88;7344981;19;20523;-58
2023/01/08 00:11:14;;;;;;;0.10;0.10;;;;;;;9.21;73.98;97848.50;7346662;19;21327;-59
2023/01/08 00:13:40;;;;;;;0.00;0.00;;;;;;;9.20;73.90;97857.25;7347019;19;20739;-58
2023/01/08 00:16:11;;;;;;;0.08;0.08;;;;;;;9.20;73.39;97865.06;7346344;19;20011;-58
2023/01/08 00:18:37;;;;;;;0.00;0.00;;;;;;;9.20;73.74;97875.47;7344809;19;20006;-57
2023/01/08 00:21:04;;;;;;;0.08;0.08;;;;;;;9.20;73.74;97888.50;7341114;19;20569;-58
2023/01/08 00:23:29;;;;;;;0.10;0.10;;;;;;;9.08;73.56;97857.09;7350181;19;20010;-58
2023/01/08 00:25:55;;;;;;;0.10;0.10;;;;;;;9.08;73.88;97859.69;7347882;19;20013;-58
2023/01/08 00:28:20;;;;;;;0.00;0.00;;;;;;;9.14;74.31;97855.03;7345828;19;20086;-58
2023/01/08 00:30:47;;;;;;;0.00;0.00;;;;;;;9.17;73.67;97873.06;7342284;19;20936;-57
2023/01/08 00:33:12;;;;;;;0.03;0.03;;;;;;;9.16;73.70;97871.38;7340669;19;20025;-57
2023/01/08 00:35:38;;;;;;;0.00;0.00;;;;;;;9.17;73.69;97873.06;7340292;19;20604;-58
2023/01/08 00:38:04;;;;;;;0.00;0.00;;;;;;;9.16;73.55;97874.00;7338293;19;20010;-58
2023/01/08 00:40:30;;;;;;;0.00;0.00;;;;;;;9.09;73.62;97882.19;7340267;19;20726;-58
2023/01/08 00:42:55;;;;;;;0.10;0.10;;;;;;;9.17;73.11;97914.72;7336356;19;20010;-58
2023/01/08 00:45:21;;;;;;;0.00;0.00;;;;;;;9.17;73.12;97893.88;7345296;19;20018;-58
2023/01/08 00:47:46;;;;;;;0.10;0.10;;;;;;;9.16;73.28;97892.22;7342418;19;20915;-56
2023/01/08 00:50:12;;;;;;;0.00;0.00;;;;;;;9.16;73.56;97893.03;7335317;19;20006;-57
2023/01/08 00:52:37;;;;;;;0.10;0.10;;;;;;;9.16;73.47;97892.22;7336599;19;20732;-57
2023/01/08 00:55:03;;;;;;;0.00;0.00;;;;;;;9.13;73.60;97908.88;7338634;19;20017;-57
2023/01/08 00:57:36;;;;;;;0.08;0.08;;;;;;;9.16;73.18;97903.47;7337816;19;20018;-58
2023/01/08 01:00:02;;;;;;;0.03;0.03;;;;;;;9.15;72.96;97859.31;7333776;19;20841;-58
2023/01/08 01:02:27;;;;;;;0.10;0.10;;;;;;;9.13;73.16;97892.44;7338300;19;20014;-57
2023/01/08 01:04:53;;;;;;;0.00;0.00;;;;;;;9.14;72.83;97887.13;7338678;19;20621;-56
2023/01/08 01:07:18;;;;;;;0.00;0.00;;;;;;;9.14;73.08;97888.88;7339740;19;20827;-57
2023/01/08 01:09:44;;;;;;;0.10;0.10;;;;;;;9.13;72.71;97892.44;7338211;19;20792;-58
2023/01/08 01:12:09;;;;;;;0.00;0.00;;;;;;;9.13;72.67;97897.63;7341110;19;20009;-56
2023/01/08 01:14:36;;;;;;;0.10;0.10;;;;;;;9.10;72.85;97894.25;7340369;19;20014;-58
2023/01/08 01:17:02;;;;;;;0.10;0.10;;;;;;;9.12;73.04;97898.53;7342687;19;20675;-58
2023/01/08 01:19:27;;;;;;;0.03;0.03;;;;;;;9.10;72.89;97899.47;7343681;19;20113;-57
2023/01/08 01:21:53;;;;;;;0.00;0.00;;;;;;;9.11;72.56;97900.31;7341861;19;20006;-58
2023/01/08 01:24:20;;;;;;;0.00;0.00;;;;;;;9.09;73.23;97903.00;7343295;19;20747;-55
2023/01/08 01:26:46;;;;;;;0.00;0.00;;;;;;;9.03;73.36;97887.78;7345694;19;20034;-58
2023/01/08 01:29:11;;;;;;;0.00;0.00;;;;;;;9.06;73.05;97911.00;7343534;19;20943;-58
2023/01/08 01:31:37;;;;;;;0.00;0.00;;;;;;;9.06;72.98;97902.34;7346482;19;20127;-57
2023/01/08 01:34:02;;;;;;;0.00;0.00;;;;;;;8.99;73.14;97891.50;7339814;19;20046;-58
2023/01/08 01:36:28;;;;;;;0.00;0.00;;;;;;;9.03;73.00;97902.56;7338788;19;20010;-58
2023/01/08 01:38:56;;;;;;;0.10;0.10;;;;;;;9.06;72.98;97915.38;7342835;19;20018;-58
2023/01/08 01:41:39;;;;;;;0.10;0.10;;;;;;;9.02;72.90;97896.53;7343950;19;20015;-57
2023/01/08 01:44:40;;;;;;;0.00;0.00;;;;;;;9.06;72.89;97918.81;7342828;19;20010;-58
2023/01/08 01:47:36;;;;;;;0.03;0.03;;;;;;;9.04;73.08;97914.63;7239565;19;2004218;-58
2023/01/08 01:50:11;;;;;;;0.10;0.10;;;;;;;9.03;72.66;97919.00;7239535;19;2004446;-57
2023/01/08 01:52:41;;;;;;;0.10;0.10;;;;;;;8.98;72.65;97915.84;7343816;19;20038;-58
2023/01/08 01:55:10;;;;;;;0.10;0.10;;;;;;;8.98;72.83;97918.47;7344339;19;20439;-57
2023/01/08 01:57:38;;;;;;;0.00;0.00;;;;;;;8.96;73.06;97928.09;7349523;19;20010;-58
2023/01/08 02:00:07;;;;;;;0.05;0.05;;;;;;;8.90;72.84;97912.88;7347242;19;20018;-57
2023/01/08 02:02:33;;;;;;;0.00;0.00;;;;;;;8.82;72.48;97910.75;7348063;19;20784;-58
2023/01/08 02:05:00;;;;;;;0.10;0.10;;;;;;;8.94;72.70;97924.78;7351828;19;20007;-58
2023/01/08 02:07:45;;;;;;;0.05;0.05;;;;;;;8.93;72.51;97933.50;7347772;19;20014;-58
2023/01/08 02:10:19;;;;;;;0.10;0.10;;;;;;;8.92;72.37;97933.59;7346623;19;21131;-58
2023/01/08 02:12:50;;;;;;;0.10;0.10;;;;;;;8.82;72.07;97925.53;7350654;19;20006;-58
2023/01/08 02:15:27;;;;;;;0.00;0.00;;;;;;;8.90;72.55;97928.47;7346001;19;20009;-58
2023/01/08 02:17:57;;;;;;;0.00;0.00;;;;;;;8.88;72.52;97935.56;7344238;19;21920;-57
2023/01/08 02:20:26;;;;;;;0.10;0.10;;;;;;;8.87;72.39;97933.03;7349847;19;20047;-57
2023/01/08 02:23:13;;;;;;;0.10;0.10;;;;;;;8.89;72.30;97931.19;7346755;19;20466;-58
2023/01/08 02:26:09;;;;;;;0.00;0.00;;;;;;;8.87;72.77;97920.00;7346714;19;20783;-57
2023/01/08 02:29:08;;;;;;;0.07;0.07;;;;;;;8.84;72.56;97924.50;7247591;19;2006099;-58
2023/01/08 02:31:36;;;;;;;0.00;0.00;;;;;;;8.82;72.69;97925.53;7247678;19;2004207;-58
2023/01/08 02:34:02;;;;;;;0.10;0.10;;;;;;;8.81;72.05;97929.03;7345052;19;20010;-58
2023/01/08 02:36:38;;;;;;;0.10;0.10;;;;;;;8.82;71.87;97933.31;7343976;19;20026;-58
2023/01/08 02:39:32;;;;;;;0.10;0.10;;;;;;;8.80;72.12;97927.34;7350443;19;20927;-58
2023/01/08 02:42:10;;;;;;;0.00;0.00;;;;;;;8.79;71.95;97936.94;7245533;19;2004210;-56
2023/01/08 02:44:49;;;;;;;;;;;;;;;8.80;72.29;97922.16;7351607;19;20014;-58
2023/01/08 02:47:24;;;;;;;0.00;0.00;;;;;;;8.76;71.55;97931.91;7352225;19;19919;-58
2023/01/08 02:49:59;;;;;;;0.00;0.00;;;;;;;8.75;71.34;97924.19;7349492;19;20007;-57
2023/01/08 02:52:28;;;;;;;0.00;0.00;;;;;;;8.58;71.12;97897.44;7350017;19;20109;-60
2023/01/08 02:54:55;;;;;;;0.10;0.10;;;;;;;8.49;71.64;97884.97;7349321;19;20014;-58
2023/01/08 02:57:22;;;;;;;0.00;0.00;;;;;;;8.68;71.66;97917.69;7349607;19;20007;-55
2023/01/08 02:59:49;;;;;;;0.00;0.00;;;;;;;8.66;71.10;97922.13;7349158;19;20003;-58
2023/01/08 03:02:16;;;;;;;0.08;0.08;;;;;;;8.65;71.32;97918.69;7343060;19;20060;-58
2023/01/08 03:04:51;;;;;;;0.10;0.10;;;;;;;8.65;71.40;97917.88;7354205;19;20030;-58
2023/01/08 03:07:17;;;;;;;0.00;0.00;;;;;;;8.62;71.65;97912.84;7356969;19;21138;-58
2023/01/08 03:09:42;;;;;;;0.10;0.10;;;;;;;8.61;70.76;97916.38;7359458;19;20010;-58
2023/01/08 03:12:16;;;;;;;0.00;0.00;;;;;;;8.51;71.21;97893.50;7358153;19;20006;-57
2023/01/08 03:14:56;;;;;;;0.00;0.00;;;;;;;8.61;71.11;97905.97;7360341;19;20024;-57
2023/01/08 03:17:43;;;;;;;0.10;0.10;;;;;;;8.58;71.12;97907.84;7359515;19;20030;-57
2023/01/08 03:20:15;;;;;;;0.00;0.00;;;;;;;8.57;71.54;97898.38;7358143;19;20010;-58
2023/01/08 03:22:45;;;;;;;0.10;0.10;;;;;;;8.56;71.10;97888.03;7359131;19;20085;-58
2023/01/08 03:25:13;;;;;;;0.10;0.10;;;;;;;8.53;71.27;97889.06;7356466;19;20052;-58
2023/01/08 03:27:44;;;;;;;0.00;0.00;;;;;;;8.38;71.08;97879.56;7356365;19;20018;-57
2023/01/08 03:30:11;;;;;;;0.00;0.00;;;;;;;8.48;70.45;97890.25;7358542;19;20006;-57
2023/01/08 03:32:40;;;;;;;0.00;0.00;;;;;;;8.46;70.69;97898.13;7357588;19;20014;-58
2023/01/08 03:35:09;;;;;;;0.00;0.00;;;;;;;8.42;70.47;97881.06;7358554;19;20362;-56
2023/01/08 03:37:38;;;;;;;0.00;0.00;;;;;;;8.43;70.40;97908.72;7354168;19;20014;-57
2023/01/08 03:40:09;;;;;;;0.10;0.10;;;;;;;8.41;70.59;97889.75;7356059;19;20338;-57
2023/01/08 03:42:34;;;;;;;0.00;0.00;;;;;;;8.43;70.31;97903.53;7359654;19;20014;-57
2023/01/08 03:45:00;;;;;;;0.10;0.10;;;;;;;8.41;70.43;97910.56;7357780;19;20037;-56
2023/01/08 03:47:31;;;;;;;0.00;0.00;;;;;;;8.35;70.55;97895.31;7355704;19;20006;-58
2023/01/08 03:50:00;;;;;;;0.00;0.00;;;;;;;8.40;70.85;97908.91;7361197;19;20015;-57
2023/01/08 03:52:29;;;;;;;0.00;0.00;;;;;;;8.38;69.80;97905.56;7357908;19;20064;-56
2023/01/08 03:54:55;;;;;;;0.10;0.10;;;;;;;8.38;70.52;97905.56;7359480;19;20014;-58
2023/01/08 03:57:20;;;;;;;0.00;0.00;;;;;;;8.34;69.72;97893.63;7359208;19;20026;-57
2023/01/08 03:59:46;;;;;;;0.00;0.00;;;;;;;8.33;69.82;97887.59;7359324;19;20018;-58
2023/01/08 04:02:12;;;;;;;0.00;0.00;;;;;;;8.33;69.91;97882.41;7354256;19;20014;-57
2023/01/08 04:04:37;;;;;;;0.00;0.00;;;;;;;8.36;69.82;97881.41;7341784;19;20021;-58
2023/01/08 04:07:03;;;;;;;0.10;0.10;;;;;;;8.29;69.81;97877.47;7357764;19;20593;-58
2023/01/08 04:09:28;;;;;;;0.05;0.05;;;;;;;8.36;69.70;97872.75;7355455;19;20034;-57
2023/01/08 04:11:54;;;;;;;0.10;0.10;;;;;;;8.34;69.22;97880.63;7357843;19;20857;-57
2023/01/08 04:14:19;;;;;;;0.00;0.00;;;;;;;8.34;69.49;97878.03;7360993;19;20030;-58
2023/01/08 04:16:44;;;;;;;0.05;0.05;;;;;;;8.36;69.09;97875.34;7357686;19;20014;-56
2023/01/08 04:19:11;;;;;;;0.10;0.10;;;;;;;8.37;68.76;97870.09;7360825;19;20007;-58
2023/01/08 04:21:37;;;;;;;0.00;0.00;;;;;;;8.37;68.78;97879.66;7342646;19;20074;-58
2023/01/08 04:24:03;;;;;;;0.00;0.00;;;;;;;8.37;68.99;97883.09;7356291;19;20600;-57
2023/01/08 04:26:28;;;;;;;0.00;0.00;;;;;;;8.35;68.85;97877.09;7352040;19;20010;-57
2023/01/08 04:28:54;;;;;;;0.10;0.10;;;;;;;8.37;68.47;97884.88;7360067;19;21293;-58
2023/01/08 04:31:19;;;;;;;0.05;0.05;;;;;;;8.40;68.62;97885.50;7358272;19;20018;-57
2023/01/08 04:33:45;;;;;;;0.10;0.10;;;;;;;8.31;68.05;97879.06;7357818;19;20029;-57
2023/01/08 04:36:10;;;;;;;0.00;0.00;;;;;;;8.43;68.96;97893.13;7358760;19;20355;-58
2023/01/08 04:38:36;;;;;;;0.00;0.00;;;;;;;8.36;68.65;97876.19;7358220;19;20469;-58
2023/01/08 04:41:02;;;;;;;0.00;0.00;;;;;;;8.43;67.81;97887.94;7359046;19;20049;-58
2023/01/08 04:43:28;;;;;;;0.00;0.00;;;;;;;8.46;68.46;97876.50;7355468;19;20006;-58
2023/01/08 04:45:58;;;;;;;0.00;0.00;;;;;;;8.47;68.13;97894.63;7357184;19;20561;-57
2023/01/08 04:48:23;;;;;;;0.10;0.10;;;;;;;8.48;68.40;97891.09;7359002;19;20050;-58
2023/01/08 04:50:50;;;;;;;0.10;0.10;;;;;;;8.46;67.28;97866.94;7355887;19;20721;-58
2023/01/08 04:53:15;;;;;;;0.10;0.10;;;;;;;8.48;67.34;97870.28;7359389;19;20836;-58
2023/01/08 04:55:40;;;;;;;0.00;0.00;;;;;;;8.18;67.43;97820.91;7359397;19;20002;-56
2023/01/08 04:58:06;;;;;;;0.00;0.00;;;;;;;8.52;67.38;97886.56;7355603;19;20111;-58
2023/01/08 05:00:31;;;;;;;0.05;0.05;;;;;;;8.55;67.48;97879.38;7360951;19;20002;-57
2023/01/08 05:02:56;;;;;;;0.00;0.00;;;;;;;8.60;67.16;97891.28;7360185;19;20581;-57
2023/01/08 05:05:22;;;;;;;0.00;0.00;;;;;;;8.61;67.28;97864.34;7354776;19;20018;-58
2023/01/08 05:07:47;;;;;;;0.00;0.00;;;;;;;8.64;66.96;97854.59;7358246;19;20030;-54
2023/01/08 05:10:13;;;;;;;0.10;0.10;;;;;;;8.69;66.37;97851.72;7355718;19;20018;-58
2023/01/08 05:12:38;;;;;;;0.08;0.08;;;;;;;8.72;67.22;97841.16;7360287;19;20026;-57
2023/01/08 05:15:04;;;;;;;0.00;0.00;;;;;;;8.74;66.43;97831.47;7353163;19;20093;-57
2023/01/08 05:17:29;;;;;;;0.10;0.10;;;;;;;8.77;66.98;97849.50;7361004;19;20010;-58
2023/01/08 05:19:55;;;;;;;0.10;0.10;;;;;;;8.79;66.62;97829.41;7353080;19;20117;-58
2023/01/08 05:22:20;;;;;;;0.10;0.10;;;;;;;8.82;66.87;97829.25;7359440;19;20006;-58
2023/01/08 05:24:45;;;;;;;0.00;0.00;;;;;;;8.82;66.58;97795.41;7355347;19;20011;-58
2023/01/08 05:27:11;;;;;;;0.10;0.10;;;;;;;8.85;67.06;97810.81;7356746;19;20049;-58
2023/01/08 05:29:36;;;;;;;0.05;0.05;;;;;;;8.87;66.45;97813.31;7360272;19;20006;-57
2023/01/08 05:32:01;;;;;;;0.00;0.00;;;;;;;8.91;66.96;97805.22;7362715;19;20081;-58
2023/01/08 05:34:27;;;;;;;0.10;0.10;;;;;;;8.92;66.86;97827.75;7365015;19;20407;-58
2023/01/08 05:36:52;;;;;;;0.00;0.00;;;;;;;8.93;67.41;97837.22;7359969;19;20014;-58
2023/01/08 05:39:18;;;;;;;0.00;0.00;;;;;;;8.98;67.35;97834.34;7363787;19;20011;-58
2023/01/08 05:41:43;;;;;;;0.00;0.00;;;;;;;9.00;67.05;97819.44;7361773;19;21063;-57
2023/01/08 05:44:09;;;;;;;0.10;0.10;;;;;;;8.98;67.19;97829.97;7364943;19;20473;-58
2023/01/08 05:46:34;;;;;;;0.10;0.10;;;;;;;9.01;67.56;97837.56;7362414;19;20102;-57
2023/01/08 05:49:00;;;;;;;0.10;0.10;;;;;;;8.95;67.08;97817.13;7363336;19;20011;-58
2023/01/08 05:51:25;;;;;;;0.10;0.10;;;;;;;9.05;67.75;97844.25;7364389;19;20014;-58
2023/01/08 05:53:51;;;;;;;0.00;0.00;;;;;;;9.07;67.42;97836.34;7362308;19;20010;-58
2023/01/08 05:56:16;;;;;;;0.00;0.00;;;;;;;9.08;66.56;97836.28;7363220;19;20017;-54
2023/01/08 05:58:41;;;;;;;0.00;0.00;;;;;;;9.09;67.22;97830.13;7360100;19;20022;-58
2023/01/08 06:01:14;;;;;;;0.00;0.00;;;;;;;9.12;67.11;97829.09;7362967;19;20010;-55
2023/01/08 06:03:40;;;;;;;0.00;0.00;;;;;;;9.09;67.49;97818.88;7362989;19;20017;-58
2023/01/08 06:06:06;;;;;;;0.03;0.03;;;;;;;9.12;66.98;97826.47;7362246;19;22385;-57
2023/01/08 06:08:33;;;;;;;0.00;0.00;;;;;;;9.00;67.49;97796.03;7363503;19;20027;-57
2023/01/08 06:11:05;;;;;;;0.08;0.08;;;;;;;9.12;66.76;97810.84;7363263;19;20014;-57
2023/01/08 06:13:31;;;;;;;0.10;0.10;;;;;;;9.10;67.10;97816.16;7360681;19;20367;-58
2023/01/08 06:16:00;;;;;;;0.00;0.00;;;;;;;9.13;67.04;97803.91;7363541;19;21429;-58
2023/01/08 06:18:27;;;;;;;0.00;0.00;;;;;;;9.09;67.16;97785.88;7362998;19;20082;-58
2023/01/08 06:20:52;;;;;;;0.00;0.00;;;;;;;9.08;67.90;97780.78;7361358;19;20002;-57
2023/01/08 06:23:18;;;;;;;0.03;0.03;;;;;;;9.09;68.63;97778.06;7363091;19;20022;-57
2023/01/08 06:25:43;;;;;;;0.00;0.00;;;;;;;9.08;68.86;97778.16;7353177;19;20766;-56
2023/01/08 06:28:09;;;;;;;0.10;0.10;;;;;;;8.99;68.60;97776.97;7358486;19;20014;-57
2023/01/08 06:30:34;;;;;;;0.10;0.10;;;;;;;9.01;68.99;97795.91;7363359;19;20027;-58
2023/01/08 06:33:00;;;;;;;0.00;0.00;;;;;;;8.94;68.77;97784.22;7361697;19;20696;-55
2023/01/08 06:35:26;;;;;;;0.00;0.00;;;;;;;8.90;68.46;97789.72;7364104;19;20018;-58
2023/01/08 06:37:54;;;;;;;0.00;0.00;;;;;;;8.78;68.41;97773.13;7362953;19;20011;-58
2023/01/08 06:40:20;;;;;;;0.00;0.00;;;;;;;8.76;69.02;97777.56;7360065;19;20021;-55
2023/01/08 06:42:45;;;;;;;0.03;0.03;;;;;;;8.70;69.06;97780.56;7362644;19;20006;-58
2023/01/08 06:45:11;;;;;;;0.10;0.10;;;;;;;8.63;68.70;97774.06;7363004;19;20014;-57
2023/01/08 06:47:36;;;;;;;0.00;0.00;;;;;;;8.57;69.34;97768.31;7362260;19;20010;-58
2023/01/08 06:50:02;;;;;;;0.05;0.05;;;;;;;8.52;69.78;97772.97;7362548;19;20031;-58
2023/01/08 06:52:28;;;;;;;0.00;0.00;;;;;;;8.49;69.60;97770.53;7364928;19;20733;-57
2023/01/08 06:54:53;;;;;;;0.00;0.00;;;;;;;8.46;69.82;97768.09;7360798;19;20006;-57
2023/01/08 06:57:18;;;;;;;0.00;0.00;;;;;;;8.44;69.62;97763.94;7361705;19;20011;-58
2023/01/08 06:59:44;;;;;;;0.10;0.10;;;;;;;8.44;69.72;97771.75;7348454;19;20078;-57
2023/01/08 07:02:13;;;;;;;0.10;0.10;;;;;;;8.41;69.22;97770.16;7358120;19;20006;-58
2023/01/08 07:04:38;;;;;;;0.00;0.00;;;;;;;8.38;69.51;97775.56;7354081;19;20026;-55
2023/01/08 07:07:03;;;;;;;0.00;0.00;;;;;;;8.35;69.18;97761.88;7358469;19;20451;-58
2023/01/08 07:09:29;;;;;;;0.00;0.00;;;;;;;8.30;69.60;97765.56;7361790;19;22500;-58
2023/01/08 07:11:54;;;;;;;0.00;0.00;;;;;;;8.31;69.82;97769.88;7361078;19;20003;-58
2023/01/08 07:14:20;;;;;;;0.08;0.08;;;;;;;8.29;69.52;97776.91;7358639;19;20011;-57
2023/01/08 07:16:45;;;;;;;0.10;0.10;;;;;;;8.25;69.25;97769.38;7358810;19;20082;-56
2023/01/08 07:19:10;;;;;;;0.00;0.00;;;;;;;8.25;69.67;97774.59;7359083;19;20041;-57
2023/01/08 07:21:36;;;;;;;0.10;0.10;;;;;;;8.25;69.84;97774.59;7355411;19;20056;-58
2023/01/08 07:24:01;;;;;;;0.10;0.10;;;;;;;8.24;69.50;97762.53;7361119;19;20022;-58
2023/01/08 07:26:27;;;;;;;0.10;0.10;;;;;;;8.16;69.34;97754.34;7357696;19;20829;-57
2023/01/08 07:28:52;;;;;;;0.10;0.10;;;;;;;8.23;69.24;97763.47;7358288;19;20706;-58
2023/01/08 07:31:17;;;;;;;0.00;0.00;;;;;;;8.21;69.34;97758.34;7358053;19;20014;-58
2023/01/08 07:33:43;;;;;;;0.10;0.10;;;;;;;8.22;69.64;97756.59;7359915;19;20025;-58
2023/01/08 07:36:08;;;;;;;0.00;0.00;;;;;;;8.09;68.85;97740.03;7359503;19;20816;-57
2023/01/08 07:38:34;;;;;;;0.00;0.00;;;;;;;8.17;69.15;97756.88;7353902;19;20021;-58
2023/01/08 07:40:59;;;;;;;0.00;0.00;;;;;;;8.10;69.14;97744.31;7359867;19;20014;-57
2023/01/08 07:43:25;;;;;;;0.00;0.00;;;;;;;8.16;69.33;97754.34;7356311;19;20043;-58
2023/01/08 07:45:50;;;;;;;0.10;0.10;;;;;;;8.15;68.69;97752.66;7356407;19;21159;-57
2023/01/08 07:48:16;;;;;;;0.10;0.10;;;;;;;8.15;69.29;97747.47;7357826;19;20011;-57
2023/01/08 07:50:44;;;;;;;0.00;0.00;;;;;;;8.16;69.00;97749.13;7355422;19;20010;-57
2023/01/08 07:53:12;;;;;;;0.00;0.00;;;;;;;8.14;68.85;97753.59;7359695;19;20600;-58
2023/01/08 07:55:38;;;;;;;0.00;0.00;;;;;;;8.11;69.06;97751.19;7360407;19;20014;-56
2023/01/08 07:58:08;;;;;;;0.00;0.00;;;;;;;8.12;69.39;97745.06;7357939;19;23612;-57
2023/01/08 08:00:34;;;;;;;0.00;0.00;;;;;;;8.09;69.25;97748.69;7360074;19;20434;-57
2023/01/08 08:03:04;;;;;;;0.00;0.00;;;;;;;8.09;68.90;97742.66;7358047;19;20040;-57
2023/01/08 08:05:30;;;;;;;0.08;0.08;;;;;;;8.06;69.09;97744.50;7357189;19;20026;-56
2023/01/08 08:07:55;;;;;;;0.00;0.00;;;;;;;8.05;69.26;97732.44;7357837;19;20643;-58
2023/01/08 08:10:20;;;;;;;0.00;0.00;;;;;;;8.04;69.40;97730.75;7356487;19;20017;-58
2023/01/08 08:12:46;;;;;;;0.00;0.00;;;;;;;8.03;69.47;97723.91;7357735;19;20011;-57
2023/01/08 08:15:11;;;;;;;0.08;0.08;;;;;;;8.01;69.67;97727.53;7359829;19;20014;-57
2023/01/08 08:17:37;;;;;;;0.05;0.05;;;;;;;8.01;69.32;97725.75;7358014;19;20041;-57
2023/01/08 08:20:02;;;;;;;0.00;0.00;;;;;;;8.01;69.87;97736.16;7359157;19;20010;-58
2023/01/08 08:22:28;;;;;;;0.00;0.00;;;;;;;8.00;70.06;97742.25;7353131;19;20047;-58
2023/01/08 08:24:53;;;;;;;0.00;0.00;;;;;;;7.91;69.70;97727.25;7357108;19;20006;-58
2023/01/08 08:27:18;;;;;;;0.00;0.00;;;;;;;7.99;69.84;97739.75;7358115;19;20093;-58
2023/01/08 08:29:44;;;;;;;0.00;0.00;;;;;;;7.98;70.07;97736.31;7356762;19;20358;-58
2023/01/08 08:32:09;;;;;;;0.00;0.00;;;;;;;7.99;70.18;97729.38;7361420;19;20470;-58
2023/01/08 08:34:35;;;;;;;0.00;0.00;;;;;;;8.00;70.16;97738.81;7357327;19;20006;-57
2023/01/08 08:37:00;;;;;;;0.00;0.00;;;;;;;7.97;69.94;97726.88;7356694;19;20010;-58
2023/01/08 08:39:25;;;;;;;0.10;0.10;;;;;;;7.97;70.08;97720.84;7359381;19;20041;-57
2023/01/08 08:41:51;;;;;;;0.00;0.00;;;;;;;7.96;70.31;97712.22;7356364;19;20085;-58
2023/01/08 08:44:16;;;;;;;0.00;0.00;;;;;;;7.96;70.00;97727.81;7354624;19;20014;-57
2023/01/08 08:46:41;;;;;;;0.00;0.00;;;;;;;7.97;70.78;97729.47;7358368;19;20032;-58
2023/01/08 08:49:07;;;;;;;0.03;0.03;;;;;;;7.95;69.89;97720.91;7353370;19;20119;-57
2023/01/08 08:51:32;;;;;;;0.00;0.00;;;;;;;7.95;70.54;97715.72;7359591;19;20805;-56
2023/01/08 08:53:58;;;;;;;0.00;0.00;;;;;;;7.94;70.56;97714.03;7357896;19;20018;-57
2023/01/08 08:56:23;;;;;;;0.00;0.00;;;;;;;7.96;70.51;97714.81;7334939;19;20502;-56
2023/01/08 08:58:50;;;;;;;0.00;0.00;;;;;;;7.94;70.49;97708.00;7360174;19;20026;-56
2023/01/08 09:01:16;;;;;;;0.00;0.00;;;;;;;7.96;70.91;97717.41;7357083;19;20538;-58
2023/01/08 09:03:41;;;;;;;0.00;0.00;;;;;;;7.93;70.40;97696.78;7356912;19;20002;-56
2023/01/08 09:06:12;;;;;;;0.00;0.00;;;;;;;7.95;70.67;97712.28;7363357;19;20804;-57
2023/01/08 09:08:38;;;;;;;0.00;0.00;;;;;;;7.92;70.39;97715.06;7364653;19;20011;-58
2023/01/08 09:11:03;;;;;;;0.10;0.10;;;;;;;7.91;70.07;97713.41;7361094;19;20014;-58
2023/01/08 09:13:29;;;;;;;0.00;0.00;;;;;;;7.92;70.80;97715.06;7363412;19;20021;-58
2023/01/08 09:15:57;;;;;;;0.00;0.00;;;;;;;7.94;70.51;97724.44;7365002;19;20014;-58
2023/01/08 09:18:22;;;;;;;0.00;0.00;;;;;;;7.91;70.26;97716.84;7360189;19;20022;-58
2023/01/08 09:20:48;;;;;;;0.05;0.05;;;;;;;7.90;69.95;97722.94;7362398;19;22625;-58
2023/01/08 09:23:13;;;;;;;0.03;0.03;;;;;;;7.74;70.33;97696.22;7359852;19;20090;-58
2023/01/08 09:25:38;;;;;;;0.05;0.05;;;;;;;7.88;70.64;97730.00;7365323;19;20020;-57
2023/01/08 09:28:06;;;;;;;0.10;0.10;;;;;;;7.86;69.59;97726.69;7360760;19;20469;-57
2023/01/08 09:30:32;;;;;;;0.10;0.10;;;;;;;7.66;69.30;97677.66;7361915;19;20027;-58
2023/01/08 09:32:59;;;;;;;0.05;0.05;;;;;;;7.83;70.08;97700.88;7357621;19;20343;-59
2023/01/08 09:35:25;;;;;;;0.00;0.00;;;;;;;7.82;70.26;97709.59;7357916;19;20022;-57
2023/01/08 09:37:52;;;;;;;0.10;0.10;;;;;;;7.80;69.68;97712.25;7356805;19;20023;-57
2023/01/08 09:40:19;;;;;;;0.00;0.00;;;;;;;7.77;69.61;97699.47;7355995;19;20612;-57
2023/01/08 09:42:52;;;;;;;0.00;0.00;;;;;;;7.78;69.72;97705.50;7353826;19;20030;-56
2023/01/08 09:45:25;;;;;;;0.10;0.10;;;;;;;7.65;69.61;97681.16;7363315;19;20485;-58
2023/01/08 09:47:51;;;;;;;0.00;0.00;;;;;;;7.73;69.28;97699.75;7362347;19;20002;-58
2023/01/08 09:50:17;;;;;;;0.00;0.00;;;;;;;7.69;69.19;97687.84;7366675;19;20077;-57
2023/01/08 09:52:42;;;;;;;0.00;0.00;;;;;;;7.67;69.61;97698.34;7361874;19;20034;-58
2023/01/08 09:55:17;;;;;;;0.00;0.00;;;;;;;7.69;69.81;97698.25;7363521;19;22224;-57
2023/01/08 09:57:43;;;;;;;0.00;0.00;;;;;;;7.67;69.63;97694.91;7357798;19;20352;-58
2023/01/08 10:00:25;;;;;;;0.08;0.08;;;;;;;7.57;69.46;97675.59;7363252;19;20952;-57
2023/01/08 10:02:53;;;;;;;0.00;0.00;;;;;;;7.63;69.43;97696.03;7360916;19;20007;-57
2023/01/08 10:05:18;;;;;;;0.00;0.00;;;;;;;7.50;69.36;97680.31;7360482;19;20081;-58
2023/01/08 10:07:45;;;;;;;0.05;0.05;;;;;;;7.58;69.16;97703.25;7363089;19;20007;-57
2023/01/08 10:10:26;;;;;;;0.08;0.08;;;;;;;7.61;70.27;97722.09;7351722;19;20006;-57
2023/01/08 10:12:53;;;;;;;0.00;0.00;;;;;;;7.60;69.96;97712.59;7352944;19;20454;-57
2023/01/08 10:15:20;;;;;;;0.00;0.00;;;;;;;7.50;70.02;97701.06;7345256;19;20027;-58
2023/01/08 10:18:10;;;;;;;0.10;0.10;;;;;;;7.62;69.81;97707.34;7360664;19;20465;-57
2023/01/08 10:20:38;;;;;;;0.00;0.00;;;;;;;7.59;70.17;97707.50;7264425;19;2004316;-57
2023/01/08 10:23:14;;;;;;;0.00;0.00;;;;;;;7.63;70.02;97698.63;7360260;19;20846;-58
2023/01/08 10:25:57;;;;;;;0.00;0.00;;;;;;;7.60;70.18;97699.63;7358622;19;20007;-57
2023/01/08 10:28:28;;;;;;;0.00;0.00;;;;;;;7.64;69.46;97703.72;7352814;19;20006;-56
2023/01/08 10:31:02;;;;;;;0.00;0.00;;;;;;;7.66;69.76;97704.47;7357266;19;20082;-58
2023/01/08 10:33:37;;;;;;;0.00;0.00;;;;;;;7.68;70.62;97686.19;7361246;19;20081;-57
2023/01/08 10:36:08;;;;;;;0.00;0.00;;;;;;;7.82;70.91;97688.81;7356877;19;20019;-57
2023/01/08 10:38:46;;;;;;;0.00;0.00;;;;;;;8.01;70.36;97699.78;7359721;19;20014;-58
2023/01/08 10:41:13;;;;;;;0.00;0.00;;;;;;;8.18;69.47;97679.72;7358486;19;20014;-58
2023/01/08 10:43:47;;;;;;;0.00;0.00;;;;;;;8.43;70.74;97703.31;7357574;19;20037;-56
2023/01/08 10:46:27;;;;;;;0.00;0.00;;;;;;;8.69;69.92;97690.44;7354594;19;20010;-57
2023/01/08 10:48:55;;;;;;;0.00;0.00;;;;;;;8.94;70.36;97698.34;7359737;19;20499;-58
2023/01/08 10:51:24;;;;;;;;;;;;;;;9.26;72.06;97698.03;7359669;19;20021;-58
2023/01/08 10:53:51;;;;;;;0.10;0.10;;;;;;;9.45;69.94;97700.28;7354771;19;20002;-58
2023/01/08 10:56:26;;;;;;;0.00;0.00;;;;;;;9.73;68.98;97694.03;7356131;19;20347;-58
2023/01/08 10:58:53;;;;;;;0.00;0.00;;;;;;;9.89;67.62;97699.91;7355361;19;20022;-57
2023/01/08 11:01:21;;;;;;;0.10;0.10;;;;;;;10.11;66.32;97697.50;7337452;19;20015;-57
2023/01/08 11:03:56;;;;;;;0.00;0.00;;;;;;;10.33;67.32;97683.00;7354883;19;20009;-58
2023/01/08 11:06:24;;;;;;;0.00;0.00;;;;;;;10.49;66.53;97681.00;7349275;19;20719;-58
2023/01/08 11:08:59;;;;;;;0.00;0.00;;;;;;;10.63;66.03;97700.88;7351025;19;20015;-58
2023/01/08 11:11:34;;;;;;;0.08;0.08;;;;;;;10.70;63.79;97686.47;7355918;19;20015;-58
2023/01/08 11:14:04;;;;;;;0.10;0.10;;;;;;;10.66;63.27;97687.63;7359465;19;21050;-57
2023/01/08 11:16:39;;;;;;;0.00;0.00;;;;;;;10.68;65.18;97688.34;7339964;19;20021;-58
2023/01/08 11:19:16;;;;;;;0.00;0.00;;;;;;;10.72;64.05;97694.19;7352064;19;20039;-57
2023/01/08 11:21:41;;;;;;;0.00;0.00;;;;;;;10.78;64.50;97678.91;7348871;19;20014;-57
2023/01/08 11:24:17;;;;;;;0.00;0.00;;;;;;;10.91;62.98;97689.31;7347155;19;21643;-58
2023/01/08 11:26:52;;;;;;;0.05;0.05;;;;;;;11.01;61.70;97685.09;7352529;19;20074;-58
2023/01/08 11:29:27;;;;;;;0.10;0.10;;;;;;;11.09;61.31;97677.50;7356712;19;20070;-58
2023/01/08 11:32:13;;;;;;;0.08;0.08;;;;;;;11.24;61.82;97674.72;7359571;19;20011;-58
2023/01/08 11:34:49;;;;;;;0.00;0.00;;;;;;;11.34;61.96;97686.16;7356486;19;20022;-58
2023/01/08 11:37:27;;;;;;;0.10;0.10;;;;;;;11.40;61.74;97678.72;7359371;19;20898;-58
2023/01/08 11:39:54;;;;;;;0.00;0.00;;;;;;;11.55;61.42;97679.31;7345270;19;20044;-58
2023/01/08 11:42:40;;;;;;;0.10;0.10;;;;;;;11.76;62.73;97673.44;7348746;19;20052;-57
2023/01/08 11:45:33;;;;;;;0.00;0.00;;;;;;;11.96;63.47;97672.78;7345175;19;20018;-58
2023/01/08 11:48:23;;;;;;;0.00;0.00;;;;;;;12.13;62.68;97668.88;7244213;19;2004408;-58